createdAt,value
2019-03-21T00:00:40.725Z,8.70
2019-03-21T00:03:09.188Z,8.43
2019-03-21T00:05:37.791Z,9.03
2019-03-21T00:08:07.147Z,8.70
2019-03-21T00:10:38.684Z,8.43
2019-03-21T00:13:07.110Z,9.47
2019-03-21T00:15:50.403Z,9.37
2019-03-21T00:18:18.833Z,9.77
2019-03-21T00:20:47.291Z,8.63
2019-03-21T00:23:15.727Z,9.90
2019-03-21T00:25:44.171Z,9.70
2019-03-21T00:28:12.611Z,8.93
2019-03-21T00:30:41.063Z,8.90
2019-03-21T00:33:09.512Z,9.10
2019-03-21T00:35:38.680Z,9.00
2019-03-21T00:38:07.274Z,9.07
2019-03-21T00:40:43.757Z,8.20
2019-03-21T00:43:12.562Z,8.50
2019-03-21T00:45:41.012Z,8.57
2019-03-21T00:48:15.594Z,9.20
2019-03-21T00:50:44.103Z,8.70
2019-03-21T00:53:12.539Z,8.77
2019-03-21T00:55:45.487Z,8.47
2019-03-21T00:58:13.920Z,8.47
2019-03-21T01:00:51.261Z,8.47
2019-03-21T01:03:19.702Z,7.77
2019-03-21T01:05:48.217Z,8.57
2019-03-21T01:08:16.639Z,8.00
2019-03-21T01:10:45.105Z,7.87
2019-03-21T01:13:13.603Z,8.57
2019-03-21T01:15:42.064Z,8.90
2019-03-21T01:18:10.491Z,8.27
2019-03-21T01:20:38.941Z,9.07
2019-03-21T01:23:07.366Z,8.73
2019-03-21T01:25:50.692Z,8.27
2019-03-21T01:28:19.123Z,9.10
2019-03-21T01:30:47.595Z,8.53
2019-03-21T01:33:16.026Z,9.10
2019-03-21T01:35:44.522Z,8.80
2019-03-21T01:38:12.958Z,8.50
2019-03-21T01:40:53.451Z,8.37
2019-03-21T01:43:22.714Z,8.20
2019-03-21T01:45:51.151Z,7.90
2019-03-21T01:48:19.621Z,8.93
2019-03-21T01:50:48.063Z,8.60
2019-03-21T01:53:16.602Z,8.90
2019-03-21T01:55:45.044Z,8.80
2019-03-21T01:58:13.501Z,9.50
2019-03-21T02:00:47.508Z,9.07
2019-03-21T02:03:15.954Z,8.70
2019-03-21T02:05:44.374Z,9.13
2019-03-21T02:08:12.819Z,9.10
2019-03-21T02:10:41.333Z,9.57
2019-03-21T02:13:09.789Z,8.80
2019-03-21T02:15:38.251Z,9.00
2019-03-21T02:18:06.847Z,9.10
2019-03-21T02:20:35.347Z,8.60
2019-03-21T02:23:03.809Z,9.40
2019-03-21T02:25:34.674Z,8.53
2019-03-21T02:28:03.128Z,8.00
2019-03-21T02:30:36.759Z,8.43
2019-03-21T02:33:11.025Z,9.03
2019-03-21T02:35:39.515Z,8.70
2019-03-21T02:38:07.960Z,8.33
2019-03-21T02:40:36.568Z,8.33
2019-03-21T02:43:05.028Z,9.10
2019-03-21T02:45:33.527Z,9.90
2019-03-21T02:48:01.987Z,8.80
2019-03-21T02:50:33.010Z,8.47
2019-03-21T02:53:01.904Z,9.13
2019-03-21T02:55:30.395Z,8.30
2019-03-21T02:57:58.919Z,8.67
2019-03-21T03:00:32.694Z,8.67
2019-03-21T03:03:01.495Z,9.37
2019-03-21T03:05:31.784Z,8.70
2019-03-21T03:08:00.307Z,9.13
2019-03-21T03:10:38.128Z,9.90
2019-03-21T03:13:06.871Z,9.47
2019-03-21T03:15:36.743Z,8.67
2019-03-21T03:18:07.131Z,9.00
2019-03-21T03:20:35.574Z,9.70
2019-03-21T03:23:04.255Z,9.80
2019-03-21T03:25:52.040Z,9.27
2019-03-21T03:28:32.352Z,9.70
2019-03-21T03:31:00.858Z,9.63
2019-03-21T03:33:29.439Z,9.77
2019-03-21T03:35:57.920Z,9.87
2019-03-21T03:38:26.664Z,9.40
2019-03-21T03:41:06.353Z,9.20
2019-03-21T03:43:34.808Z,10.03
2019-03-21T03:46:03.232Z,8.67
2019-03-21T03:48:31.690Z,10.07
2019-03-21T03:51:00.124Z,8.60
2019-03-21T03:53:28.573Z,8.70
2019-03-21T03:55:57.131Z,9.60
2019-03-21T03:58:34.551Z,9.13
2019-03-21T04:01:03.271Z,8.90
2019-03-21T04:03:31.779Z,9.10
2019-03-21T04:06:00.278Z,8.70
2019-03-21T04:08:28.724Z,8.57
2019-03-21T04:10:58.232Z,9.00
2019-03-21T04:13:26.706Z,9.00
2019-03-21T04:15:55.209Z,9.07
2019-03-21T04:18:25.234Z,9.27
2019-03-21T04:21:05.662Z,8.17
2019-03-21T04:23:34.218Z,8.90
2019-03-21T04:26:08.789Z,8.77
2019-03-21T04:28:37.251Z,8.80
2019-03-21T04:31:05.683Z,9.20
2019-03-21T04:33:34.162Z,9.47
2019-03-21T04:36:02.689Z,8.83
2019-03-21T04:38:31.167Z,9.63
2019-03-21T04:40:59.684Z,9.17
2019-03-21T04:43:28.126Z,8.97
2019-03-21T04:46:03.270Z,7.77
2019-03-21T04:48:26.745Z,10.27
2019-03-21T04:50:55.166Z,8.73
2019-03-21T04:53:23.683Z,9.77
2019-03-21T04:55:52.131Z,8.33
2019-03-21T04:58:20.772Z,8.97
2019-03-21T05:00:51.820Z,8.57
2019-03-21T05:03:25.100Z,9.43
2019-03-21T05:05:53.522Z,10.27
2019-03-21T05:08:21.977Z,9.70
2019-03-21T05:10:50.407Z,9.37
2019-03-21T05:13:18.867Z,9.77
2019-03-21T05:15:48.547Z,9.67
2019-03-21T05:18:28.787Z,9.83
2019-03-21T05:20:57.589Z,10.03
2019-03-21T05:23:26.035Z,9.43
2019-03-21T05:25:54.463Z,8.37
2019-03-21T05:28:22.917Z,11.53
2019-03-21T05:31:03.467Z,12.93
2019-03-21T05:33:31.928Z,11.40
2019-03-21T05:36:00.393Z,10.10
2019-03-21T05:38:31.685Z,9.90
2019-03-21T05:41:00.253Z,10.13
2019-03-21T05:43:40.683Z,9.60
2019-03-21T05:46:09.175Z,9.77
2019-03-21T05:48:37.642Z,10.07
2019-03-21T05:51:06.154Z,9.80
2019-03-21T05:53:34.637Z,8.80
2019-03-21T05:56:03.343Z,8.93
2019-03-21T05:58:31.824Z,8.37
2019-03-21T06:01:09.647Z,8.00
2019-03-21T06:03:54.478Z,9.70
2019-03-21T06:06:38.059Z,9.70
2019-03-21T06:09:09.996Z,9.73
2019-03-21T06:11:39.812Z,7.73
2019-03-21T06:14:08.351Z,8.53
2019-03-21T06:16:37.756Z,9.20
2019-03-21T06:19:12.388Z,25.30
2019-03-21T06:21:43.982Z,25.60
2019-03-21T06:24:29.806Z,23.77
2019-03-21T06:27:16.338Z,21.63
2019-03-21T06:29:44.801Z,27.57
2019-03-21T06:32:14.826Z,29.67
2019-03-21T06:34:43.306Z,16.27
2019-03-21T06:37:11.798Z,12.50
2019-03-21T06:39:40.294Z,13.63
2019-03-21T06:42:08.749Z,10.43
2019-03-21T06:44:37.274Z,10.33
2019-03-21T06:47:05.709Z,10.07
2019-03-21T06:49:34.163Z,10.40
2019-03-21T06:52:02.653Z,10.87
2019-03-21T06:54:31.147Z,11.67
2019-03-21T06:57:02.272Z,11.73
2019-03-21T06:59:29.836Z,10.57
2019-03-21T07:01:58.314Z,11.90
2019-03-21T07:04:26.768Z,10.33
2019-03-21T07:06:55.226Z,10.47
2019-03-21T07:09:23.670Z,9.77
2019-03-21T07:11:52.135Z,11.37
2019-03-21T07:14:20.582Z,10.50
2019-03-21T07:16:59.821Z,9.70
2019-03-21T07:19:19.491Z,10.00
2019-03-21T07:21:47.947Z,9.50
2019-03-21T07:24:16.411Z,25.83
2019-03-21T07:26:44.886Z,9.87
2019-03-21T07:29:13.485Z,10.80
2019-03-21T07:31:42.023Z,9.10
2019-03-21T07:34:10.467Z,10.57
2019-03-21T07:36:38.914Z,9.93
2019-03-21T07:39:07.789Z,9.13
2019-03-21T07:41:36.274Z,10.27
2019-03-21T07:44:04.847Z,10.43
2019-03-21T07:46:33.310Z,10.33
2019-03-21T07:49:01.739Z,12.00
2019-03-21T07:51:30.201Z,11.10
2019-03-21T07:53:58.683Z,11.40
2019-03-21T07:56:27.157Z,8.73
2019-03-21T07:58:57.721Z,9.50
2019-03-21T08:01:25.915Z,8.43
2019-03-21T08:03:54.350Z,7.43
2019-03-21T08:06:22.883Z,8.17
2019-03-21T08:08:51.382Z,9.27
2019-03-21T08:11:19.837Z,8.90
2019-03-21T08:13:48.280Z,9.63
2019-03-21T08:16:16.841Z,9.57
2019-03-21T08:18:45.258Z,7.80
2019-03-21T08:21:13.717Z,6.90
2019-03-21T08:23:42.243Z,8.47
2019-03-21T08:26:10.777Z,8.60
2019-03-21T08:28:39.245Z,10.17
2019-03-21T08:31:14.839Z,9.03
2019-03-21T08:33:43.523Z,8.03
2019-03-21T08:36:11.972Z,7.77
2019-03-21T08:38:40.417Z,8.43
2019-03-21T08:41:08.860Z,7.80
2019-03-21T08:43:37.311Z,7.80
2019-03-21T08:46:05.745Z,8.53
2019-03-21T08:48:34.196Z,7.23
2019-03-21T08:51:08.208Z,7.80
2019-03-21T08:53:32.823Z,7.90
2019-03-21T08:56:01.342Z,7.33
2019-03-21T08:58:29.874Z,7.93
2019-03-21T09:00:58.319Z,8.07
2019-03-21T09:03:27.119Z,7.83
2019-03-21T09:05:55.559Z,9.33
2019-03-21T09:08:24.011Z,6.97
2019-03-21T09:10:53.621Z,8.43
2019-03-21T09:13:22.083Z,8.77
2019-03-21T09:15:50.515Z,7.93
2019-03-21T09:18:18.951Z,8.47
2019-03-21T09:20:47.435Z,8.83
2019-03-21T09:23:16.183Z,7.87
2019-03-21T09:25:44.730Z,8.63
2019-03-21T09:28:14.317Z,8.70
2019-03-21T09:30:43.026Z,7.80
2019-03-21T09:33:11.459Z,8.57
2019-03-21T09:35:40.033Z,8.40
2019-03-21T09:38:08.491Z,10.10
2019-03-21T09:40:36.956Z,7.77
2019-03-21T09:43:05.394Z,9.50
2019-03-21T09:45:33.852Z,9.53
2019-03-21T09:48:02.318Z,8.37
2019-03-21T09:50:30.766Z,9.40
2019-03-21T09:52:59.362Z,8.87
2019-03-21T09:55:27.814Z,9.67
2019-03-21T09:57:56.249Z,8.60
2019-03-21T10:00:32.670Z,9.10
2019-03-21T10:03:01.242Z,8.70
2019-03-21T10:05:29.694Z,7.83
2019-03-21T10:07:59.555Z,9.10
2019-03-21T10:10:30.138Z,8.43
2019-03-21T10:12:58.671Z,8.47
2019-03-21T10:15:27.619Z,10.23
2019-03-21T10:17:56.317Z,8.90
2019-03-21T10:20:24.913Z,8.83
2019-03-21T10:22:53.430Z,8.77
2019-03-21T10:25:21.906Z,10.00
2019-03-21T10:27:50.502Z,8.57
2019-03-21T10:30:30.853Z,10.43
2019-03-21T10:32:59.287Z,9.23
2019-03-21T10:35:27.759Z,9.83
2019-03-21T10:37:56.583Z,9.83
2019-03-21T10:40:25.205Z,11.00
2019-03-21T10:42:53.670Z,9.60
2019-03-21T10:45:22.115Z,10.13
2019-03-21T10:47:50.585Z,9.37
2019-03-21T10:50:30.721Z,9.73
2019-03-21T10:52:59.673Z,8.37
2019-03-21T10:55:28.237Z,8.23
2019-03-21T10:57:56.928Z,9.50
2019-03-21T11:00:25.509Z,8.70
2019-03-21T11:02:53.982Z,9.30
2019-03-21T11:05:23.287Z,9.10
2019-03-21T11:07:52.318Z,8.97
2019-03-21T11:10:20.825Z,9.50
2019-03-21T11:12:49.349Z,10.80
2019-03-21T11:15:20.549Z,9.47
2019-03-21T11:17:49.942Z,8.60
2019-03-21T11:20:32.625Z,9.73
2019-03-21T11:23:01.624Z,8.83
2019-03-21T11:25:30.508Z,8.73
2019-03-21T11:27:58.982Z,8.67
2019-03-21T11:30:36.058Z,10.17
2019-03-21T11:33:04.883Z,9.27
2019-03-21T11:35:33.996Z,10.50
2019-03-21T11:38:02.530Z,9.50
2019-03-21T11:40:31.035Z,10.07
2019-03-21T11:42:59.847Z,9.43
2019-03-21T11:45:28.427Z,9.70
2019-03-21T11:47:59.403Z,10.20
2019-03-21T11:50:27.070Z,10.37
2019-03-21T11:52:55.598Z,11.17
2019-03-21T11:55:24.095Z,8.80
2019-03-21T11:57:52.629Z,8.23
2019-03-21T12:00:21.060Z,8.40
2019-03-21T12:02:49.520Z,7.83
2019-03-21T12:05:17.972Z,8.30
2019-03-21T12:07:46.410Z,7.80
2019-03-21T12:10:15.707Z,8.20
2019-03-21T12:12:44.164Z,8.40
2019-03-21T12:15:13.463Z,9.27
2019-03-21T12:17:41.913Z,7.63
2019-03-21T12:20:25.174Z,8.33
2019-03-21T12:22:53.623Z,8.50
2019-03-21T12:25:22.091Z,8.00
2019-03-21T12:27:50.526Z,9.30
2019-03-21T12:30:30.640Z,7.57
2019-03-21T12:32:59.338Z,8.20
2019-03-21T12:35:27.807Z,8.47
2019-03-21T12:37:56.325Z,8.87
2019-03-21T12:40:24.866Z,7.27
2019-03-21T12:42:59.310Z,9.10
2019-03-21T12:45:27.772Z,9.63
2019-03-21T12:47:56.217Z,9.27
2019-03-21T12:50:24.704Z,8.50
2019-03-21T12:52:53.215Z,8.57
2019-03-21T12:55:21.762Z,8.47
2019-03-21T12:57:50.309Z,7.80
2019-03-21T13:00:34.040Z,8.83
2019-03-21T13:03:02.653Z,8.70
2019-03-21T13:05:31.909Z,8.43
2019-03-21T13:08:00.612Z,7.93
2019-03-21T13:10:29.191Z,8.43
2019-03-21T13:12:57.704Z,8.53
2019-03-21T13:15:30.055Z,8.03
2019-03-21T13:17:56.410Z,8.47
2019-03-21T13:20:24.888Z,8.60
2019-03-21T13:22:53.772Z,8.67
2019-03-21T13:25:22.621Z,7.77
2019-03-21T13:27:51.060Z,7.70
2019-03-21T13:30:19.774Z,8.70
2019-03-21T13:32:48.279Z,8.90
2019-03-21T13:35:16.746Z,8.00
2019-03-21T13:37:45.187Z,8.23
2019-03-21T13:40:13.707Z,8.40
2019-03-21T13:42:42.160Z,7.97
2019-03-21T13:45:11.039Z,8.53
2019-03-21T13:47:39.482Z,8.90
2019-03-21T13:50:09.003Z,9.00
2019-03-21T13:52:37.771Z,8.50
2019-03-21T13:55:07.691Z,8.47
2019-03-21T13:57:36.276Z,8.43
2019-03-21T14:00:08.016Z,8.03
2019-03-21T14:02:36.490Z,7.30
2019-03-21T14:05:07.398Z,8.03
2019-03-21T14:07:35.836Z,7.83
2019-03-21T14:10:06.839Z,8.00
2019-03-21T14:12:35.276Z,7.67
2019-03-21T14:15:08.358Z,8.13
2019-03-21T14:17:36.832Z,8.40
2019-03-21T14:20:10.627Z,6.97
2019-03-21T14:22:39.093Z,7.50
2019-03-21T14:25:07.980Z,8.33
2019-03-21T14:27:36.427Z,8.27
2019-03-21T14:30:13.866Z,7.00
2019-03-21T14:32:42.380Z,7.90
2019-03-21T14:35:10.923Z,7.80
2019-03-21T14:37:39.432Z,7.97
2019-03-21T14:40:10.898Z,8.00
2019-03-21T14:42:39.716Z,7.37
2019-03-21T14:45:10.189Z,7.93
2019-03-21T14:47:38.644Z,8.23
2019-03-21T14:50:15.134Z,5.87
2019-03-21T14:52:43.921Z,8.20
2019-03-21T14:55:31.725Z,8.47
2019-03-21T14:58:00.162Z,8.33
2019-03-21T15:00:28.716Z,8.50
2019-03-21T15:02:57.134Z,8.50
2019-03-21T15:05:25.598Z,8.30
2019-03-21T15:07:54.112Z,8.17
2019-03-21T15:10:22.714Z,7.60
2019-03-21T15:12:51.155Z,6.80
2019-03-21T15:15:19.643Z,7.47
2019-03-21T15:17:48.083Z,6.70
2019-03-21T15:20:17.293Z,6.40
2019-03-21T15:22:45.887Z,7.30
2019-03-21T15:25:14.815Z,7.40
2019-03-21T15:27:43.270Z,6.93
2019-03-21T15:30:17.497Z,8.00
2019-03-21T15:32:46.887Z,6.97
2019-03-21T15:35:17.126Z,7.20
2019-03-21T15:37:45.661Z,6.00
2019-03-21T15:40:16.424Z,6.40
2019-03-21T15:42:44.971Z,7.40
2019-03-21T15:45:22.650Z,7.27
2019-03-21T15:47:48.291Z,7.43
2019-03-21T15:50:38.019Z,7.00
2019-03-21T15:53:07.279Z,6.77
2019-03-21T15:55:35.921Z,7.90
2019-03-21T15:58:04.899Z,7.27
2019-03-21T16:00:38.835Z,7.83
2019-03-21T16:03:08.430Z,7.27
2019-03-21T16:05:37.297Z,7.00
2019-03-21T16:08:08.684Z,6.90
2019-03-21T16:10:37.671Z,6.37
2019-03-21T16:13:06.359Z,7.40
2019-03-21T16:15:34.794Z,6.90
2019-03-21T16:18:03.423Z,6.90
2019-03-21T16:20:31.935Z,6.60
2019-03-21T16:23:00.489Z,7.10
2019-03-21T16:25:29.006Z,5.80
2019-03-21T16:27:57.845Z,6.30
2019-03-21T16:30:26.326Z,8.00
2019-03-21T16:32:54.802Z,6.27
2019-03-21T16:35:23.409Z,6.63
2019-03-21T16:37:52.231Z,7.17
2019-03-21T16:40:20.747Z,6.43
2019-03-21T16:42:49.315Z,4.93
2019-03-21T16:45:17.978Z,5.80
2019-03-21T16:47:46.442Z,6.60
2019-03-21T16:50:15.838Z,7.07
2019-03-21T16:52:44.359Z,6.20
2019-03-21T16:55:14.343Z,7.13
2019-03-21T16:57:43.051Z,8.50
2019-03-21T17:00:13.987Z,6.97
2019-03-21T17:02:42.585Z,6.77
2019-03-21T17:05:11.259Z,7.20
2019-03-21T17:07:39.729Z,6.53
2019-03-21T17:10:16.144Z,7.20
2019-03-21T17:12:45.115Z,6.43
2019-03-21T17:15:14.567Z,6.17
2019-03-21T17:17:43.152Z,6.70
2019-03-21T17:20:12.434Z,6.00
2019-03-21T17:22:41.012Z,6.80
2019-03-21T17:25:10.599Z,7.13
2019-03-21T17:27:39.375Z,7.10
2019-03-21T17:30:11.033Z,6.73
2019-03-21T17:32:39.535Z,6.87
2019-03-21T17:35:08.100Z,6.93
2019-03-21T17:37:36.547Z,7.97
2019-03-21T17:40:07.018Z,8.40
2019-03-21T17:42:35.466Z,7.07
2019-03-21T17:45:06.453Z,8.47
2019-03-21T17:47:34.874Z,9.33
2019-03-21T17:50:22.682Z,9.97
2019-03-21T17:52:51.455Z,10.33
2019-03-21T17:55:19.892Z,11.93
2019-03-21T17:57:48.340Z,11.07
2019-03-21T18:00:38.587Z,12.53
2019-03-21T18:03:07.391Z,10.77
2019-03-21T18:05:35.831Z,10.60
2019-03-21T18:08:04.300Z,11.80
2019-03-21T18:10:35.578Z,11.03
2019-03-21T18:13:05.154Z,11.97
2019-03-21T18:15:33.666Z,10.40
2019-03-21T18:18:02.462Z,10.47
2019-03-21T18:20:30.986Z,9.47
2019-03-21T18:22:59.432Z,9.33
2019-03-21T18:25:28.057Z,10.27
2019-03-21T18:27:56.540Z,9.60
2019-03-21T18:30:25.133Z,10.53
2019-03-21T18:32:53.866Z,10.20
2019-03-21T18:35:22.407Z,10.50
2019-03-21T18:37:50.852Z,11.80
2019-03-21T18:40:19.396Z,10.33
2019-03-21T18:42:47.896Z,20.67
2019-03-21T18:45:17.030Z,22.40
2019-03-21T18:47:45.504Z,14.13
2019-03-21T18:50:17.593Z,9.90
2019-03-21T18:52:46.171Z,9.87
2019-03-21T18:55:14.766Z,9.23
2019-03-21T18:57:43.289Z,10.13
2019-03-21T19:00:17.203Z,10.50
2019-03-21T19:02:45.646Z,9.37
2019-03-21T19:05:14.557Z,10.43
2019-03-21T19:07:42.986Z,11.53
2019-03-21T19:10:12.782Z,9.73
2019-03-21T19:12:42.769Z,10.07
2019-03-21T19:15:16.112Z,9.40
2019-03-21T19:17:44.637Z,9.87
2019-03-21T19:20:19.828Z,11.20
2019-03-21T19:23:07.970Z,10.47
2019-03-21T19:25:36.443Z,9.67
2019-03-21T19:28:05.136Z,11.77
2019-03-21T19:30:33.630Z,10.80
2019-03-21T19:33:02.138Z,9.97
2019-03-21T19:35:30.685Z,10.33
2019-03-21T19:37:59.128Z,10.47
2019-03-21T19:40:27.590Z,11.00
2019-03-21T19:42:56.098Z,10.57
2019-03-21T19:45:24.570Z,11.80
2019-03-21T19:47:54.753Z,12.17
2019-03-21T19:50:23.451Z,11.20
2019-03-21T19:52:51.897Z,10.57
2019-03-21T19:55:30.209Z,10.87
2019-03-21T19:57:50.701Z,12.83
2019-03-21T20:00:22.899Z,12.00
2019-03-21T20:02:51.724Z,12.37
2019-03-21T20:05:20.355Z,12.33
2019-03-21T20:07:48.820Z,13.30
2019-03-21T20:10:19.019Z,14.60
2019-03-21T20:12:47.559Z,12.90
2019-03-21T20:15:19.865Z,12.67
2019-03-21T20:17:48.457Z,11.80
2019-03-21T20:20:19.747Z,12.80
2019-03-21T20:22:48.327Z,13.50
2019-03-21T20:25:16.911Z,13.93
2019-03-21T20:27:45.450Z,12.83
2019-03-21T20:30:24.468Z,11.10
2019-03-21T20:32:53.327Z,11.63
2019-03-21T20:35:21.832Z,11.50
2019-03-21T20:37:50.295Z,11.90
2019-03-21T20:40:20.492Z,12.80
2019-03-21T20:42:49.006Z,13.17
2019-03-21T20:45:19.162Z,12.80
2019-03-21T20:47:47.622Z,12.80
2019-03-21T20:50:17.893Z,12.67
2019-03-21T20:52:46.531Z,12.90
2019-03-21T20:55:15.312Z,12.50
2019-03-21T20:57:43.786Z,11.97
2019-03-21T21:00:25.511Z,12.27
2019-03-21T21:02:54.821Z,12.23
2019-03-21T21:05:23.496Z,12.10
2019-03-21T21:07:52.303Z,12.67
2019-03-21T21:10:21.026Z,12.97
2019-03-21T21:12:49.494Z,12.80
2019-03-21T21:15:18.373Z,13.73
2019-03-21T21:17:46.816Z,13.93
2019-03-21T21:20:17.609Z,13.93
2019-03-21T21:22:46.189Z,12.97
2019-03-21T21:25:15.003Z,13.33
2019-03-21T21:27:49.142Z,14.57
2019-03-21T21:30:21.330Z,14.90
2019-03-21T21:32:49.820Z,13.67
2019-03-21T21:35:18.344Z,14.23
2019-03-21T21:37:46.783Z,14.07
2019-03-21T21:40:16.787Z,14.30
2019-03-21T21:42:45.573Z,13.87
2019-03-21T21:45:16.378Z,13.10
2019-03-21T21:47:45.166Z,14.50
2019-03-21T21:50:15.465Z,14.23
2019-03-21T21:52:43.918Z,14.50
2019-03-21T21:55:13.820Z,14.10
2019-03-21T21:57:42.342Z,14.40
2019-03-21T22:00:19.626Z,13.93
2019-03-21T22:02:48.138Z,13.67
2019-03-21T22:05:18.827Z,13.97
2019-03-21T22:07:48.539Z,13.00
2019-03-21T22:10:17.165Z,13.33
2019-03-21T22:12:46.610Z,13.20
2019-03-21T22:15:16.026Z,12.83
2019-03-21T22:17:44.522Z,13.07
2019-03-21T22:20:17.152Z,14.10
2019-03-21T22:22:45.836Z,15.50
2019-03-21T22:25:15.443Z,14.63
2019-03-21T22:27:44.131Z,15.20
2019-03-21T22:30:19.982Z,13.00
2019-03-21T22:32:48.589Z,13.43
2019-03-21T22:35:17.066Z,13.67
2019-03-21T22:37:45.578Z,13.47
2019-03-21T22:40:16.379Z,13.50
2019-03-21T22:42:44.982Z,12.70
2019-03-21T22:45:14.984Z,12.63
2019-03-21T22:47:44.184Z,12.20
2019-03-21T22:50:15.136Z,12.27
2019-03-21T22:52:44.563Z,11.67
2019-03-21T22:55:13.610Z,11.40
2019-03-21T22:57:42.152Z,12.47
2019-03-21T23:00:15.821Z,11.37
2019-03-21T23:02:44.646Z,11.43
2019-03-21T23:05:13.536Z,11.80
2019-03-21T23:07:42.078Z,11.53
2019-03-21T23:10:11.154Z,11.30
2019-03-21T23:12:40.292Z,10.00
2019-03-21T23:15:10.374Z,10.83
2019-03-21T23:17:39.166Z,13.83
2019-03-21T23:20:10.312Z,12.47
2019-03-21T23:22:38.846Z,12.63
2019-03-21T23:25:08.334Z,12.60
2019-03-21T23:27:36.934Z,14.27
2019-03-21T23:30:11.156Z,14.53
2019-03-21T23:32:39.625Z,14.80
2019-03-21T23:35:08.972Z,14.47
2019-03-21T23:37:37.801Z,13.70
2019-03-21T23:40:14.511Z,16.20
2019-03-21T23:42:43.606Z,15.03
2019-03-21T23:45:13.991Z,13.87
2019-03-21T23:47:42.686Z,14.30
2019-03-21T23:50:13.378Z,12.13
2019-03-21T23:52:41.901Z,11.20
2019-03-21T23:55:10.702Z,12.67
2019-03-21T23:57:39.163Z,12.63
